createdAt,value
2022-09-23T00:06:48.687Z,11.00
2022-09-23T00:13:51.751Z,11.02
2022-09-23T00:20:44.789Z,11.00
2022-09-23T00:27:47.881Z,11.00
2022-09-23T00:34:43.288Z,10.98
2022-09-23T00:41:45.387Z,11.00
2022-09-23T00:48:49.000Z,11.00
2022-09-23T00:55:00.307Z,10.90
2022-09-23T01:01:44.511Z,10.94
2022-09-23T01:08:39.262Z,11.00
2022-09-23T01:15:59.740Z,11.00
2022-09-23T01:22:52.199Z,10.94
2022-09-23T01:30:15.948Z,10.80
2022-09-23T01:37:08.616Z,10.80
2022-09-23T01:43:56.855Z,10.90
2022-09-23T01:50:57.219Z,10.80
2022-09-23T01:58:06.194Z,10.90
2022-09-23T02:05:13.253Z,10.90
2022-09-23T02:12:10.586Z,10.70
2022-09-23T02:19:25.115Z,10.50
2022-09-23T02:26:30.200Z,10.60
2022-09-23T02:33:05.513Z,10.60
2022-09-23T02:40:16.289Z,10.70
2022-09-23T02:47:12.353Z,10.76
2022-09-23T02:54:15.200Z,10.80
2022-09-23T03:00:51.684Z,10.90
2022-09-23T03:07:35.638Z,10.90
2022-09-23T03:14:26.069Z,10.90
2022-09-23T03:21:40.812Z,10.90
2022-09-23T03:28:36.636Z,10.82
2022-09-23T03:35:12.384Z,10.76
2022-09-23T03:41:20.232Z,10.70
2022-09-23T03:48:05.538Z,10.70
2022-09-23T03:54:43.763Z,10.50
2022-09-23T04:01:27.075Z,10.40
2022-09-23T04:07:23.893Z,10.40
2022-09-23T04:14:13.584Z,10.50
2022-09-23T04:21:16.604Z,10.40
2022-09-23T04:27:07.225Z,10.36
2022-09-23T04:33:18.288Z,10.38
2022-09-23T04:39:40.077Z,10.30
2022-09-23T04:46:24.057Z,10.30
2022-09-23T04:52:57.392Z,10.20
2022-09-23T04:59:30.253Z,10.18
2022-09-23T05:06:30.644Z,10.10
2022-09-23T05:13:26.571Z,10.06
2022-09-23T05:20:14.076Z,10.10
2022-09-23T05:26:40.668Z,10.20
2022-09-23T05:33:26.511Z,10.10
2022-09-23T05:40:23.126Z,10.10
2022-09-23T05:47:32.299Z,10.10
2022-09-23T05:54:35.227Z,10.16
2022-09-23T06:01:36.801Z,10.20
2022-09-23T06:07:52.240Z,10.40
2022-09-23T06:13:49.764Z,10.50
2022-09-23T06:20:42.516Z,10.58
2022-09-23T06:27:45.624Z,10.70
2022-09-23T06:34:52.219Z,10.80
2022-09-23T06:41:55.515Z,10.90
2022-09-23T06:48:58.771Z,11.10
2022-09-23T06:55:50.428Z,11.38
2022-09-23T07:02:44.456Z,11.44
2022-09-23T07:09:47.376Z,11.70
2022-09-23T07:16:50.402Z,11.70
2022-09-23T07:23:53.391Z,12.00
2022-09-23T07:31:00.248Z,12.30
2022-09-23T07:37:57.278Z,12.40
2022-09-23T07:44:59.025Z,12.60
2022-09-23T07:52:08.033Z,12.80
2022-09-23T07:58:53.994Z,13.00
2022-09-23T08:05:57.346Z,13.30
2022-09-23T08:13:00.583Z,13.50
2022-09-23T08:20:06.712Z,13.50
2022-09-23T08:27:08.754Z,13.80
2022-09-23T08:34:04.117Z,14.10
2022-09-23T08:41:00.191Z,14.28
2022-09-23T08:47:47.138Z,14.30
2022-09-23T08:54:33.383Z,14.40
2022-09-23T09:01:44.918Z,14.50
2022-09-23T09:08:50.884Z,14.68
2022-09-23T09:16:05.765Z,14.90
2022-09-23T09:23:11.735Z,15.00
2022-09-23T09:29:56.601Z,14.90
2022-09-23T09:37:19.012Z,14.80
2022-09-23T09:44:23.020Z,14.90
2022-09-23T09:51:05.922Z,15.08
2022-09-23T09:58:04.643Z,15.40
2022-09-23T10:05:02.369Z,15.80
2022-09-23T10:12:17.397Z,15.90
2022-09-23T10:19:12.786Z,15.70
2022-09-23T10:26:20.366Z,15.60
2022-09-23T10:33:15.888Z,15.70
2022-09-23T10:40:02.166Z,15.50
2022-09-23T10:47:17.590Z,15.90
2022-09-23T10:54:18.975Z,15.90
2022-09-23T11:01:58.025Z,15.80
2022-09-23T11:08:50.532Z,15.72
2022-09-23T11:15:51.980Z,16.00
2022-09-23T11:22:54.722Z,16.20
2022-09-23T11:29:03.665Z,16.40
2022-09-23T11:35:21.648Z,16.60
2022-09-23T11:42:16.437Z,16.70
2022-09-23T11:49:04.604Z,17.00
2022-09-23T11:55:39.533Z,17.30
2022-09-23T12:03:03.895Z,17.68
2022-09-23T12:10:22.972Z,17.90
2022-09-23T12:17:55.778Z,18.00
2022-09-23T12:25:16.902Z,17.90
2022-09-23T12:32:20.107Z,17.60
2022-09-23T12:39:41.406Z,17.60
2022-09-23T12:46:30.045Z,17.50
2022-09-23T12:53:23.397Z,17.40
2022-09-23T13:01:05.836Z,17.10
2022-09-23T13:08:27.830Z,16.90
2022-09-23T13:15:23.707Z,16.80
2022-09-23T13:22:44.090Z,16.50
2022-09-23T13:30:08.055Z,16.28
2022-09-23T13:37:09.943Z,16.10
2022-09-23T13:44:04.555Z,16.30
2022-09-23T13:50:46.671Z,16.40
2022-09-23T13:57:19.414Z,16.50
2022-09-23T14:04:07.178Z,16.60
2022-09-23T14:10:58.942Z,16.70
2022-09-23T14:17:42.637Z,16.80
2022-09-23T14:24:24.885Z,16.54
2022-09-23T14:31:08.133Z,16.40
2022-09-23T14:37:41.058Z,16.20
2022-09-23T14:44:20.587Z,16.10
2022-09-23T14:50:57.259Z,15.90
2022-09-23T14:58:04.208Z,15.80
2022-09-23T15:05:18.735Z,15.60
2022-09-23T15:12:24.588Z,15.50
2022-09-23T15:19:07.702Z,15.30
2022-09-23T15:26:16.654Z,15.20
2022-09-23T15:32:37.220Z,15.10
2022-09-23T15:39:31.952Z,15.18
2022-09-23T15:45:30.805Z,15.10
2022-09-23T15:51:42.589Z,15.10
2022-09-23T15:57:40.937Z,15.00
2022-09-23T16:03:37.518Z,15.00
2022-09-23T16:09:47.768Z,14.90
2022-09-23T16:16:16.089Z,14.80
2022-09-23T16:23:01.521Z,14.70
2022-09-23T16:29:53.975Z,14.40
2022-09-23T16:36:05.673Z,14.10
2022-09-23T16:42:16.676Z,13.70
2022-09-23T16:49:11.330Z,13.30
2022-09-23T16:55:31.062Z,13.10
2022-09-23T17:02:19.113Z,13.00
2022-09-23T17:08:54.984Z,12.74
2022-09-23T17:15:00.675Z,12.50
2022-09-23T17:21:23.688Z,12.30
2022-09-23T17:28:26.666Z,12.16
2022-09-23T17:35:02.883Z,12.00
2022-09-23T17:42:12.524Z,12.00
2022-09-23T17:49:16.276Z,12.00
2022-09-23T17:56:09.727Z,12.00
2022-09-23T18:02:31.728Z,11.84
2022-09-23T18:08:45.781Z,11.70
2022-09-23T18:15:40.838Z,11.60
2022-09-23T18:22:20.519Z,11.50
2022-09-23T18:28:57.266Z,11.30
2022-09-23T18:35:51.861Z,11.06
2022-09-23T18:42:34.797Z,11.00
2022-09-23T18:49:21.049Z,11.00
2022-09-23T18:56:19.561Z,10.94
2022-09-23T19:03:11.741Z,10.70
2022-09-23T19:10:15.224Z,10.60
2022-09-23T19:16:32.064Z,10.50
2022-09-23T19:22:40.476Z,10.30
2022-09-23T19:28:37.502Z,10.20
2022-09-23T19:34:50.102Z,10.10
2022-09-23T19:41:18.159Z,10.02
2022-09-23T19:48:12.119Z,10.06
2022-09-23T19:54:34.360Z,10.00
2022-09-23T20:01:10.098Z,10.10
2022-09-23T20:07:35.117Z,10.10
2022-09-23T20:14:29.544Z,10.00
2022-09-23T20:21:08.298Z,9.80
2022-09-23T20:28:11.775Z,9.56
2022-09-23T20:34:42.251Z,9.40
2022-09-23T20:41:45.790Z,9.50
2022-09-23T20:48:49.119Z,9.50
2022-09-23T20:55:52.767Z,9.60
2022-09-23T21:01:58.719Z,9.56
2022-09-23T21:08:48.687Z,9.34
2022-09-23T21:15:43.333Z,9.30
2022-09-23T21:22:36.682Z,9.40
2022-09-23T21:29:36.772Z,9.48
2022-09-23T21:36:39.943Z,9.50
2022-09-23T21:43:42.985Z,9.50
2022-09-23T21:50:46.619Z,9.30
2022-09-23T21:57:42.492Z,9.22
2022-09-23T22:04:45.596Z,9.20
2022-09-23T22:11:47.512Z,9.30
2022-09-23T22:18:40.985Z,9.30
2022-09-23T22:25:28.278Z,9.30
2022-09-23T22:32:30.095Z,9.20
2022-09-23T22:39:25.947Z,9.30
2022-09-23T22:46:29.414Z,9.40
2022-09-23T22:53:32.628Z,9.60
2022-09-23T23:00:30.409Z,9.52
2022-09-23T23:07:33.473Z,9.60
2022-09-23T23:14:10.358Z,9.60
2022-09-23T23:21:05.001Z,9.70
2022-09-23T23:28:08.485Z,9.76
2022-09-23T23:35:11.570Z,9.80
2022-09-23T23:42:14.683Z,9.54
2022-09-23T23:49:20.598Z,9.50
2022-09-23T23:56:24.558Z,9.60
